createdAt,value
2023-04-11T00:00:41.544Z,14.82
2023-04-11T00:03:09.602Z,16.80
2023-04-11T00:05:37.733Z,17.98
2023-04-11T00:08:05.556Z,17.40
2023-04-11T00:10:33.585Z,17.45
2023-04-11T00:13:01.482Z,17.55
2023-04-11T00:15:29.490Z,17.65
2023-04-11T00:17:58.770Z,18.50
2023-04-11T00:20:26.717Z,16.50
2023-04-11T00:22:54.875Z,20.30
2023-04-11T00:25:22.706Z,22.63
2023-04-11T00:27:50.644Z,19.88
2023-04-11T00:30:18.621Z,22.33
2023-04-11T00:32:47.616Z,18.77
2023-04-11T00:35:16.987Z,18.75
2023-04-11T00:37:45.403Z,17.40
2023-04-11T00:40:17.759Z,20.65
2023-04-11T00:42:45.723Z,21.30
2023-04-11T00:45:13.983Z,18.92
2023-04-11T00:47:42.346Z,21.45
2023-04-11T00:50:13.866Z,21.60
2023-04-11T00:52:46.177Z,20.27
2023-04-11T00:55:14.978Z,17.50
2023-04-11T00:57:43.598Z,20.73
2023-04-11T01:00:12.938Z,25.02
2023-04-11T01:02:43.261Z,22.15
2023-04-11T01:05:13.098Z,23.85
2023-04-11T01:07:44.249Z,21.30
2023-04-11T01:10:13.610Z,20.88
2023-04-11T01:12:42.935Z,21.65
2023-04-11T01:15:12.184Z,23.42
2023-04-11T01:17:41.626Z,20.60
2023-04-11T01:20:12.877Z,21.95
2023-04-11T01:22:43.964Z,21.17
2023-04-11T01:25:15.565Z,22.40
2023-04-11T01:27:44.879Z,21.88
2023-04-11T01:30:13.483Z,20.38
2023-04-11T01:32:41.569Z,19.98
2023-04-11T01:35:11.435Z,19.00
2023-04-11T01:37:39.843Z,23.75
2023-04-11T01:40:09.434Z,26.50
2023-04-11T01:42:39.215Z,21.47
2023-04-11T01:45:08.538Z,23.00
2023-04-11T01:47:37.518Z,25.35
2023-04-11T01:50:06.886Z,26.87
2023-04-11T01:52:34.843Z,20.83
2023-04-11T01:55:04.102Z,20.65
2023-04-11T01:57:32.078Z,24.77
2023-04-11T02:00:01.313Z,23.52
2023-04-11T02:02:29.330Z,25.77
2023-04-11T02:04:57.274Z,21.77
2023-04-11T02:07:25.212Z,22.38
2023-04-11T02:09:53.064Z,25.00
2023-04-11T02:12:20.996Z,20.58
2023-04-11T02:14:49.764Z,22.60
2023-04-11T02:17:20.600Z,22.88
2023-04-11T02:19:48.696Z,23.00
2023-04-11T02:22:17.032Z,22.98
2023-04-11T02:24:46.401Z,21.83
2023-04-11T02:27:14.641Z,24.70
2023-04-11T02:29:42.564Z,26.13
2023-04-11T02:32:10.690Z,24.00
2023-04-11T02:34:41.296Z,22.05
2023-04-11T02:37:09.454Z,22.60
2023-04-11T02:39:37.299Z,21.83
2023-04-11T02:42:05.393Z,19.88
2023-04-11T02:44:33.611Z,20.58
2023-04-11T02:47:02.296Z,18.80
2023-04-11T02:49:30.598Z,18.92
2023-04-11T02:52:00.795Z,24.48
2023-04-11T02:54:28.857Z,20.05
2023-04-11T02:56:59.197Z,22.35
2023-04-11T02:59:27.176Z,21.45
2023-04-11T03:01:59.177Z,16.95
2023-04-11T03:04:28.055Z,19.23
2023-04-11T03:07:06.314Z,20.58
2023-04-11T03:09:34.211Z,20.25
2023-04-11T03:12:02.195Z,20.20
2023-04-11T03:14:30.852Z,18.90
2023-04-11T03:16:58.810Z,17.67
2023-04-11T03:19:28.344Z,18.45
2023-04-11T03:21:56.213Z,21.00
2023-04-11T03:24:25.501Z,18.15
2023-04-11T03:26:53.547Z,17.13
2023-04-11T03:29:21.474Z,17.17
2023-04-11T03:32:02.998Z,14.20
2023-04-11T03:34:34.729Z,17.90
2023-04-11T03:37:04.958Z,16.88
2023-04-11T03:39:36.814Z,21.73
2023-04-11T03:42:04.984Z,17.90
2023-04-11T03:44:34.246Z,16.45
2023-04-11T03:47:02.567Z,19.92
2023-04-11T03:49:37.415Z,16.23
2023-04-11T03:52:07.299Z,16.93
2023-04-11T03:54:37.485Z,20.27
2023-04-11T03:57:06.803Z,19.23
2023-04-11T03:59:35.899Z,19.48
2023-04-11T04:02:08.870Z,17.73
2023-04-11T04:04:43.487Z,19.15
2023-04-11T04:07:22.278Z,17.02
2023-04-11T04:09:54.016Z,19.63
2023-04-11T04:12:22.767Z,19.90
2023-04-11T04:15:14.683Z,18.80
2023-04-11T04:17:44.385Z,17.42
2023-04-11T04:20:18.710Z,17.60
2023-04-11T04:22:53.135Z,19.83
2023-04-11T04:25:30.145Z,19.92
2023-04-11T04:28:00.831Z,15.00
2023-04-11T04:30:37.920Z,19.33
2023-04-11T04:33:12.130Z,19.67
2023-04-11T04:35:42.659Z,16.40
2023-04-11T04:38:17.268Z,15.35
2023-04-11T04:40:50.596Z,16.63
2023-04-11T04:43:23.972Z,17.15
2023-04-11T04:46:13.094Z,19.17
2023-04-11T04:48:49.216Z,18.15
2023-04-11T04:51:17.118Z,16.88
2023-04-11T04:53:45.365Z,16.02
2023-04-11T04:56:14.567Z,18.40
2023-04-11T04:58:47.254Z,17.35
2023-04-11T05:01:17.455Z,19.10
2023-04-11T05:03:58.629Z,17.13
2023-04-11T05:06:38.112Z,17.80
2023-04-11T05:09:06.474Z,19.55
2023-04-11T05:11:36.321Z,17.08
2023-04-11T05:14:04.971Z,18.40
2023-04-11T05:16:33.131Z,19.92
2023-04-11T05:19:01.538Z,17.52
2023-04-11T05:21:31.989Z,17.90
2023-04-11T05:23:59.930Z,18.77
2023-04-11T05:26:27.875Z,19.07
2023-04-11T05:28:57.172Z,16.92
2023-04-11T05:31:28.668Z,20.30
2023-04-11T05:33:57.786Z,19.63
2023-04-11T05:36:28.367Z,19.38
2023-04-11T05:38:56.352Z,23.00
2023-04-11T05:41:24.341Z,20.27
2023-04-11T05:43:52.264Z,20.92
2023-04-11T05:46:22.349Z,20.30
2023-04-11T05:48:50.396Z,17.95
2023-04-11T05:51:18.312Z,18.05
2023-04-11T05:53:46.215Z,16.60
2023-04-11T05:56:14.124Z,17.77
2023-04-11T05:58:43.813Z,17.80
2023-04-11T06:01:14.213Z,21.45
2023-04-11T06:03:44.264Z,16.70
2023-04-11T06:06:12.374Z,19.08
2023-04-11T06:08:40.509Z,18.42
2023-04-11T06:11:08.542Z,17.35
2023-04-11T06:13:36.442Z,17.67
2023-04-11T06:16:06.132Z,15.05
2023-04-11T06:18:34.038Z,16.08
2023-04-11T06:21:03.670Z,17.65
2023-04-11T06:23:31.509Z,15.70
2023-04-11T06:25:59.400Z,14.85
2023-04-11T06:28:27.417Z,16.45
2023-04-11T06:30:55.453Z,16.23
2023-04-11T06:33:23.372Z,15.85
2023-04-11T06:35:51.302Z,16.13
2023-04-11T06:38:20.832Z,13.10
2023-04-11T06:40:48.844Z,11.73
2023-04-11T06:43:16.717Z,16.58
2023-04-11T06:45:44.572Z,13.98
2023-04-11T06:48:12.799Z,12.35
2023-04-11T06:50:41.040Z,14.18
2023-04-11T06:53:08.884Z,11.95
2023-04-11T06:55:38.098Z,12.82
2023-04-11T06:58:05.965Z,11.13
2023-04-11T07:00:33.815Z,12.77
2023-04-11T07:03:01.922Z,17.63
2023-04-11T07:05:29.840Z,13.60
2023-04-11T07:07:57.760Z,12.10
2023-04-11T07:10:25.836Z,11.40
2023-04-11T07:12:55.598Z,13.48
2023-04-11T07:15:23.851Z,10.82
2023-04-11T07:17:52.813Z,12.65
2023-04-11T07:20:23.280Z,10.80
2023-04-11T07:22:51.198Z,10.15
2023-04-11T07:25:22.419Z,10.93
2023-04-11T07:27:51.693Z,12.35
2023-04-11T07:30:20.914Z,13.38
2023-04-11T07:32:48.909Z,13.18
2023-04-11T07:35:16.827Z,11.33
2023-04-11T07:37:45.450Z,10.70
2023-04-11T07:40:14.353Z,10.20
2023-04-11T07:42:42.962Z,10.73
2023-04-11T07:45:11.327Z,9.82
2023-04-11T07:47:40.732Z,12.40
2023-04-11T07:50:08.959Z,10.20
2023-04-11T07:52:36.874Z,11.55
2023-04-11T07:55:05.301Z,12.05
2023-04-11T07:57:33.365Z,9.05
2023-04-11T08:00:01.333Z,11.93
2023-04-11T08:02:41.790Z,10.77
2023-04-11T08:05:10.477Z,11.68
2023-04-11T08:07:38.362Z,12.93
2023-04-11T08:10:07.685Z,11.23
2023-04-11T08:12:35.676Z,11.38
2023-04-11T08:15:03.697Z,10.63
2023-04-11T08:17:37.561Z,12.60
2023-04-11T08:20:09.230Z,13.30
2023-04-11T08:22:37.074Z,9.60
2023-04-11T08:25:05.644Z,9.25
2023-04-11T08:27:33.582Z,8.98
2023-04-11T08:30:01.522Z,9.38
2023-04-11T08:32:29.449Z,11.40
2023-04-11T08:34:57.385Z,10.00
2023-04-11T08:37:26.573Z,11.70
2023-04-11T08:39:54.509Z,9.73
2023-04-11T08:42:24.795Z,8.18
2023-04-11T08:44:56.890Z,9.35
2023-04-11T08:47:25.690Z,8.73
2023-04-11T08:49:54.331Z,11.52
2023-04-11T08:52:23.245Z,10.38
2023-04-11T08:54:55.859Z,9.45
2023-04-11T08:57:28.544Z,10.20
2023-04-11T09:00:00.062Z,9.15
2023-04-11T09:02:28.290Z,8.95
2023-04-11T09:04:57.737Z,9.03
2023-04-11T09:07:26.594Z,10.02
2023-04-11T09:09:55.772Z,9.00
2023-04-11T09:12:30.676Z,32.47
2023-04-11T09:14:58.616Z,8.20
2023-04-11T09:17:26.492Z,6.45
2023-04-11T09:19:54.349Z,9.63
2023-04-11T09:22:43.142Z,10.52
2023-04-11T09:25:12.451Z,7.20
2023-04-11T09:27:40.401Z,10.70
2023-04-11T09:30:22.385Z,7.72
2023-04-11T09:32:53.038Z,8.57
2023-04-11T09:35:24.795Z,9.07
2023-04-11T09:37:54.527Z,6.78
2023-04-11T09:40:27.262Z,7.15
2023-04-11T09:43:00.319Z,8.53
2023-04-11T09:45:30.858Z,9.17
2023-04-11T09:48:00.869Z,4.97
2023-04-11T09:50:29.369Z,6.23
2023-04-11T09:52:59.253Z,9.37
2023-04-11T09:55:28.732Z,6.83
2023-04-11T09:57:56.594Z,7.10
2023-04-11T10:00:29.298Z,6.75
2023-04-11T10:02:57.954Z,8.20
2023-04-11T10:05:27.792Z,7.40
2023-04-11T10:08:03.230Z,5.03
2023-04-11T10:10:33.749Z,6.73
2023-04-11T10:13:01.709Z,4.97
2023-04-11T10:15:29.945Z,5.63
2023-04-11T10:18:11.135Z,4.78
2023-04-11T10:20:44.847Z,5.77
2023-04-11T10:23:13.576Z,4.43
2023-04-11T10:26:01.398Z,5.88
2023-04-11T10:28:34.308Z,4.40
2023-04-11T10:31:10.036Z,5.27
2023-04-11T10:33:39.602Z,4.57
2023-04-11T10:36:10.788Z,5.77
2023-04-11T10:38:49.647Z,5.37
2023-04-11T10:41:31.360Z,4.40
2023-04-11T10:44:18.204Z,5.83
2023-04-11T10:46:48.439Z,2.87
2023-04-11T10:49:37.862Z,4.30
2023-04-11T10:52:20.807Z,6.00
2023-04-11T10:54:49.350Z,4.83
2023-04-11T10:57:19.063Z,5.23
2023-04-11T11:00:00.506Z,6.30
2023-04-11T11:02:39.771Z,4.23
2023-04-11T11:05:22.109Z,6.57
2023-04-11T11:07:51.795Z,3.90
2023-04-11T11:10:43.200Z,4.77
2023-04-11T11:13:14.106Z,5.53
2023-04-11T11:15:48.721Z,4.43
2023-04-11T11:18:18.891Z,7.17
2023-04-11T11:20:46.842Z,8.20
2023-04-11T11:23:14.706Z,5.90
2023-04-11T11:25:53.521Z,3.93
2023-04-11T11:28:23.089Z,6.07
2023-04-11T11:30:54.870Z,5.10
2023-04-11T11:33:26.538Z,2.53
2023-04-11T11:35:57.625Z,4.27
2023-04-11T11:38:27.672Z,3.95
2023-04-11T11:40:56.363Z,5.13
2023-04-11T11:43:27.297Z,4.43
2023-04-11T11:46:08.820Z,2.73
2023-04-11T11:48:37.233Z,5.33
2023-04-11T11:51:05.503Z,2.20
2023-04-11T11:53:33.441Z,4.10
2023-04-11T11:56:01.583Z,5.53
2023-04-11T11:58:30.960Z,3.77
2023-04-11T12:00:58.950Z,4.57
2023-04-11T12:03:29.539Z,4.20
2023-04-11T12:05:58.369Z,4.93
2023-04-11T12:08:26.256Z,5.97
2023-04-11T12:10:54.203Z,5.93
2023-04-11T12:13:23.636Z,3.67
2023-04-11T12:15:55.540Z,4.40
2023-04-11T12:18:24.095Z,5.30
2023-04-11T12:20:53.826Z,5.97
2023-04-11T12:23:22.441Z,4.17
2023-04-11T12:25:50.437Z,4.43
2023-04-11T12:28:18.382Z,4.57
2023-04-11T12:30:46.292Z,7.40
2023-04-11T12:33:16.268Z,4.40
2023-04-11T12:35:44.187Z,3.77
2023-04-11T12:38:14.915Z,3.00
2023-04-11T12:40:46.097Z,4.50
2023-04-11T12:43:14.003Z,4.80
2023-04-11T12:45:41.887Z,4.63
2023-04-11T12:48:10.347Z,3.23
2023-04-11T12:50:39.821Z,5.33
2023-04-11T12:53:07.732Z,4.13
2023-04-11T12:55:35.746Z,5.27
2023-04-11T12:58:03.649Z,4.37
2023-04-11T13:00:31.694Z,3.23
2023-04-11T13:02:59.813Z,2.43
2023-04-11T13:05:28.119Z,4.80
2023-04-11T13:07:57.363Z,4.87
2023-04-11T13:10:25.303Z,4.47
2023-04-11T13:12:58.507Z,5.30
2023-04-11T13:15:27.037Z,6.35
2023-04-11T13:17:54.972Z,5.10
2023-04-11T13:20:23.166Z,5.07
2023-04-11T13:22:51.094Z,4.77
2023-04-11T13:25:20.434Z,4.27
2023-04-11T13:27:48.345Z,4.47
2023-04-11T13:30:16.475Z,4.47
2023-04-11T13:32:44.382Z,3.63
2023-04-11T13:35:12.302Z,6.00
2023-04-11T13:37:40.443Z,4.90
2023-04-11T13:40:11.201Z,3.13
2023-04-11T13:42:40.605Z,6.37
2023-04-11T13:45:09.889Z,5.67
2023-04-11T13:47:38.922Z,3.70
2023-04-11T13:50:09.063Z,3.63
2023-04-11T13:52:37.367Z,5.07
2023-04-11T13:55:06.146Z,2.60
2023-04-11T13:57:34.011Z,4.43
2023-04-11T14:00:06.744Z,9.80
2023-04-11T14:02:34.854Z,5.13
2023-04-11T14:05:02.799Z,4.13
2023-04-11T14:07:30.722Z,3.10
2023-04-11T14:09:58.587Z,3.80
2023-04-11T14:12:27.630Z,3.80
2023-04-11T14:14:55.508Z,4.53
2023-04-11T14:17:24.818Z,4.93
2023-04-11T14:19:52.908Z,4.13
2023-04-11T14:22:20.969Z,4.85
2023-04-11T14:24:48.831Z,5.78
2023-04-11T14:27:16.758Z,6.00
2023-04-11T14:29:44.606Z,6.20
2023-04-11T14:32:12.685Z,4.97
2023-04-11T14:34:41.956Z,6.07
2023-04-11T14:37:09.870Z,2.47
2023-04-11T14:39:39.006Z,4.10
2023-04-11T14:42:07.145Z,4.83
2023-04-11T14:44:35.419Z,6.55
2023-04-11T14:47:03.477Z,5.27
2023-04-11T14:49:31.407Z,7.77
2023-04-11T14:52:01.174Z,4.33
2023-04-11T14:54:29.639Z,4.57
2023-04-11T14:56:58.572Z,5.70
2023-04-11T14:59:27.223Z,5.70
2023-04-11T15:01:55.153Z,6.20
2023-04-11T15:04:23.184Z,6.43
2023-04-11T15:06:51.205Z,6.83
2023-04-11T15:09:21.042Z,5.63
2023-04-11T15:11:49.653Z,7.37
2023-04-11T15:14:17.540Z,10.27
2023-04-11T15:16:45.624Z,6.87
2023-04-11T15:19:13.621Z,6.65
2023-04-11T15:21:41.567Z,5.80
2023-04-11T15:24:09.421Z,8.47
2023-04-11T15:26:38.653Z,7.50
2023-04-11T15:29:06.952Z,8.17
2023-04-11T15:31:36.460Z,5.93
2023-04-11T15:34:04.518Z,6.97
2023-04-11T15:36:32.434Z,6.90
2023-04-11T15:39:00.657Z,6.53
2023-04-11T15:41:28.580Z,6.45
2023-04-11T15:43:58.142Z,5.90
2023-04-11T15:46:27.030Z,3.57
2023-04-11T15:48:54.967Z,4.20
2023-04-11T15:51:23.116Z,4.97
2023-04-11T15:53:51.004Z,7.00
2023-04-11T15:56:19.891Z,5.60
2023-04-11T15:58:49.173Z,8.73
2023-04-11T16:01:24.932Z,5.65
2023-04-11T16:03:53.413Z,7.85
2023-04-11T16:06:22.481Z,5.07
2023-04-11T16:08:50.761Z,4.77
2023-04-11T16:11:18.620Z,7.43
2023-04-11T16:13:46.428Z,4.97
2023-04-11T16:16:14.336Z,7.43
2023-04-11T16:18:43.615Z,6.30
2023-04-11T16:21:15.731Z,5.27
2023-04-11T16:23:43.960Z,7.83
2023-04-11T16:26:11.789Z,5.77
2023-04-11T16:28:39.643Z,5.45
2023-04-11T16:31:09.219Z,5.17
2023-04-11T16:33:37.156Z,5.27
2023-04-11T16:36:07.456Z,4.10
2023-04-11T16:38:35.386Z,4.87
2023-04-11T16:41:03.348Z,8.37
2023-04-11T16:43:31.208Z,6.60
2023-04-11T16:45:59.135Z,7.03
2023-04-11T16:48:27.081Z,3.77
2023-04-11T16:50:54.975Z,4.60
2023-04-11T16:53:24.333Z,6.20
2023-04-11T16:55:53.583Z,7.20
2023-04-11T17:05:46.640Z,6.57
2023-04-11T17:08:15.635Z,5.30
2023-04-11T17:10:45.138Z,6.63
2023-04-11T17:13:14.515Z,5.35
2023-04-11T17:15:42.396Z,5.00
2023-04-11T17:18:10.349Z,7.63
2023-04-11T17:20:38.300Z,5.60
2023-04-11T17:23:06.304Z,7.97
2023-04-11T17:25:34.184Z,6.37
2023-04-11T17:28:03.466Z,4.67
2023-04-11T17:30:32.360Z,6.20
2023-04-11T17:33:00.603Z,6.07
2023-04-11T17:35:29.221Z,5.97
2023-04-11T17:37:57.111Z,7.03
2023-04-11T17:40:25.011Z,5.27
2023-04-11T17:42:52.908Z,7.80
2023-04-11T17:45:22.299Z,6.43
2023-04-11T17:47:51.985Z,5.90
2023-04-11T17:50:20.069Z,7.50
2023-04-11T17:52:48.290Z,7.63
2023-04-11T17:55:17.220Z,5.97
2023-04-11T17:57:46.150Z,7.40
2023-04-11T18:00:19.369Z,4.47
2023-04-11T18:02:49.912Z,5.17
2023-04-11T18:05:23.644Z,6.70
2023-04-11T18:07:54.131Z,4.87
2023-04-11T18:10:22.834Z,6.67
2023-04-11T18:12:52.364Z,3.93
2023-04-11T18:15:20.952Z,6.67
2023-04-11T18:17:51.403Z,5.90
2023-04-11T18:20:19.611Z,7.00
2023-04-11T18:22:48.471Z,10.03
2023-04-11T18:25:16.474Z,4.90
2023-04-11T18:27:44.374Z,6.90
2023-04-11T18:30:14.618Z,6.30
2023-04-11T18:32:48.804Z,5.83
2023-04-11T18:35:19.767Z,6.17
2023-04-11T18:37:47.917Z,3.88
2023-04-11T18:40:16.661Z,6.93
2023-04-11T18:42:46.629Z,10.33
2023-04-11T18:45:15.432Z,5.40
2023-04-11T18:47:44.006Z,5.97
2023-04-11T18:50:12.511Z,9.80
2023-04-11T18:52:43.524Z,7.07
2023-04-11T18:55:12.588Z,7.37
2023-04-11T18:57:41.900Z,5.40
2023-04-11T19:00:18.043Z,5.43
2023-04-11T19:02:47.575Z,5.95
2023-04-11T19:05:16.434Z,5.10
2023-04-11T19:07:46.677Z,7.32
2023-04-11T19:10:14.740Z,5.95
2023-04-11T19:12:42.789Z,6.15
2023-04-11T19:15:11.796Z,5.88
2023-04-11T19:17:39.843Z,6.47
2023-04-11T19:20:12.197Z,5.65
2023-04-11T19:22:41.045Z,5.00
2023-04-11T19:25:12.330Z,5.90
2023-04-11T19:27:41.766Z,5.32
2023-04-11T19:30:13.490Z,6.82
2023-04-11T19:32:43.503Z,6.53
2023-04-11T19:35:12.345Z,7.75
2023-04-11T19:37:40.822Z,5.20
2023-04-11T19:40:13.367Z,5.75
2023-04-11T19:42:41.592Z,5.93
2023-04-11T19:45:11.038Z,5.57
2023-04-11T19:47:40.141Z,5.85
2023-04-11T19:50:11.892Z,5.88
2023-04-11T19:52:40.059Z,6.20
2023-04-11T19:55:10.296Z,5.03
2023-04-11T19:57:40.044Z,6.05
2023-04-11T20:00:12.137Z,4.20
2023-04-11T20:02:44.366Z,5.05
2023-04-11T20:05:12.554Z,3.57
2023-04-11T20:07:40.459Z,5.85
2023-04-11T20:10:10.955Z,5.65
2023-04-11T20:12:38.942Z,4.50
2023-04-11T20:15:08.025Z,5.63
2023-04-11T20:17:36.433Z,5.27
2023-04-11T20:20:08.418Z,6.03
2023-04-11T20:22:38.108Z,6.30
2023-04-11T20:25:07.810Z,5.83
2023-04-11T20:27:37.006Z,6.30
2023-04-11T20:32:36.008Z,4.50
2023-04-11T20:35:05.021Z,5.77
2023-04-11T20:37:35.086Z,5.70
2023-04-11T20:40:03.842Z,5.43
2023-04-11T20:42:31.967Z,4.33
2023-04-11T20:45:05.958Z,7.57
2023-04-11T20:47:37.118Z,7.40
2023-04-11T20:50:05.678Z,6.77
2023-04-11T20:52:34.649Z,6.70
2023-04-11T20:55:02.617Z,4.43
2023-04-11T20:57:31.193Z,6.43
2023-04-11T20:59:59.323Z,6.07
2023-04-11T21:02:29.156Z,8.07
2023-04-11T21:04:57.152Z,6.07
2023-04-11T21:07:25.025Z,7.50
2023-04-11T21:09:52.933Z,6.87
2023-04-11T21:12:20.790Z,6.10
2023-04-11T21:14:48.720Z,4.80
2023-04-11T21:17:16.642Z,7.97
2023-04-11T21:19:45.879Z,6.70
2023-04-11T21:22:13.840Z,4.80
2023-04-11T21:24:41.739Z,7.07
2023-04-11T21:27:09.778Z,5.57
2023-04-11T21:29:37.680Z,6.50
2023-04-11T21:32:05.804Z,6.67
2023-04-11T21:34:33.701Z,5.90
2023-04-11T21:37:02.949Z,7.57
2023-04-11T21:39:30.890Z,5.83
2023-04-11T21:42:00.151Z,6.23
2023-04-11T21:44:28.099Z,7.07
2023-04-11T21:46:56.632Z,6.33
2023-04-11T21:49:25.436Z,5.63
2023-04-11T21:51:53.381Z,9.53
2023-04-11T21:54:22.579Z,4.83
2023-04-11T21:56:50.500Z,5.50
2023-04-11T21:59:18.709Z,6.57
2023-04-11T22:01:47.880Z,6.23
2023-04-11T22:04:17.554Z,7.40
2023-04-11T22:06:46.800Z,5.43
2023-04-11T22:09:15.021Z,5.83
2023-04-11T22:11:44.324Z,5.73
2023-04-11T22:14:16.045Z,5.23
2023-04-11T22:16:48.784Z,7.17
2023-04-11T22:19:18.757Z,8.13
2023-04-11T22:21:48.577Z,10.97
2023-04-11T22:24:16.519Z,6.53
2023-04-11T22:26:48.957Z,5.80
2023-04-11T22:29:18.194Z,5.77
2023-04-11T22:31:47.291Z,5.70
2023-04-11T22:34:15.212Z,7.60
2023-04-11T22:36:43.061Z,6.30
2023-04-11T22:39:10.987Z,6.63
2023-04-11T22:41:39.322Z,5.80
2023-04-11T22:44:08.557Z,5.50
2023-04-11T22:46:38.576Z,6.90
2023-04-11T22:49:09.475Z,6.13
2023-04-11T22:51:38.415Z,6.20
2023-04-11T22:54:06.499Z,6.90
2023-04-11T22:56:34.405Z,7.67
2023-04-11T22:59:02.308Z,6.47
2023-04-11T23:01:32.988Z,8.60
2023-04-11T23:04:01.407Z,7.27
2023-04-11T23:06:29.725Z,5.37
2023-04-11T23:08:57.523Z,3.77
2023-04-11T23:11:25.709Z,6.27
2023-04-11T23:13:54.427Z,3.97
2023-04-11T23:16:22.645Z,7.07
2023-04-11T23:18:52.189Z,4.07
2023-04-11T23:21:20.156Z,4.07
2023-04-11T23:23:47.998Z,8.73
2023-04-11T23:26:20.557Z,5.07
2023-04-11T23:28:48.616Z,4.53
2023-04-11T23:31:17.657Z,5.53
2023-04-11T23:33:46.349Z,5.63
2023-04-11T23:36:15.583Z,4.40
2023-04-11T23:38:43.475Z,3.57
2023-04-11T23:41:11.333Z,4.07
2023-04-11T23:43:39.221Z,5.23
2023-04-11T23:46:07.910Z,6.73
2023-04-11T23:48:35.816Z,3.73
2023-04-11T23:51:03.728Z,4.53
2023-04-11T23:53:32.971Z,4.70
2023-04-11T23:56:00.927Z,7.80
2023-04-11T23:58:28.746Z,7.50
